sensor_id;sensor_type;location;lat;lon;timestamp;P1;durP1;ratioP1;P2;durP2;ratioP2
6497;SDS011;3282;48.358;10.958;2022-11-20T00:01:31;9.07;;;6.28;;
6497;SDS011;3282;48.358;10.958;2022-11-20T00:03:58;8.65;;;5.80;;
6497;SDS011;3282;48.358;10.958;2022-11-20T00:06:26;11.27;;;6.47;;
6497;SDS011;3282;48.358;10.958;2022-11-20T00:08:54;8.88;;;5.80;;
6497;SDS011;3282;48.358;10.958;2022-11-20T00:11:23;8.27;;;5.68;;
6497;SDS011;3282;48.358;10.958;2022-11-20T00:13:52;8.90;;;5.80;;
6497;SDS011;3282;48.358;10.958;2022-11-20T00:16:21;8.38;;;5.90;;
6497;SDS011;3282;48.358;10.958;2022-11-20T00:18:49;10.57;;;5.90;;
6497;SDS011;3282;48.358;10.958;2022-11-20T00:21:17;8.98;;;6.07;;
6497;SDS011;3282;48.358;10.958;2022-11-20T00:23:47;10.55;;;5.95;;
6497;SDS011;3282;48.358;10.958;2022-11-20T00:26:15;9.23;;;5.75;;
6497;SDS011;3282;48.358;10.958;2022-11-20T00:28:44;8.18;;;5.80;;
6497;SDS011;3282;48.358;10.958;2022-11-20T00:31:15;9.30;;;6.03;;
6497;SDS011;3282;48.358;10.958;2022-11-20T00:33:43;10.45;;;5.63;;
6497;SDS011;3282;48.358;10.958;2022-11-20T00:36:10;8.45;;;5.72;;
6497;SDS011;3282;48.358;10.958;2022-11-20T00:38:42;10.45;;;5.60;;
6497;SDS011;3282;48.358;10.958;2022-11-20T00:41:09;8.73;;;5.80;;
6497;SDS011;3282;48.358;10.958;2022-11-20T00:43:38;8.93;;;6.10;;
6497;SDS011;3282;48.358;10.958;2022-11-20T00:46:14;8.70;;;5.82;;
6497;SDS011;3282;48.358;10.958;2022-11-20T00:48:43;9.38;;;5.78;;
6497;SDS011;3282;48.358;10.958;2022-11-20T00:51:14;8.07;;;5.53;;
6497;SDS011;3282;48.358;10.958;2022-11-20T00:53:42;9.50;;;5.88;;
6497;SDS011;3282;48.358;10.958;2022-11-20T00:56:10;8.55;;;5.90;;
6497;SDS011;3282;48.358;10.958;2022-11-20T00:58:39;10.38;;;5.90;;
6497;SDS011;3282;48.358;10.958;2022-11-20T01:01:08;8.57;;;5.70;;
6497;SDS011;3282;48.358;10.958;2022-11-20T01:03:37;8.85;;;5.85;;
6497;SDS011;3282;48.358;10.958;2022-11-20T01:06:08;9.32;;;5.38;;
6497;SDS011;3282;48.358;10.958;2022-11-20T01:08:38;8.60;;;5.75;;
6497;SDS011;3282;48.358;10.958;2022-11-20T01:11:05;7.82;;;5.57;;
6497;SDS011;3282;48.358;10.958;2022-11-20T01:13:52;8.23;;;5.53;;
6497;SDS011;3282;48.358;10.958;2022-11-20T01:16:21;8.90;;;5.80;;
6497;SDS011;3282;48.358;10.958;2022-11-20T01:18:51;9.32;;;5.90;;
6497;SDS011;3282;48.358;10.958;2022-11-20T01:21:20;8.63;;;5.65;;
6497;SDS011;3282;48.358;10.958;2022-11-20T01:23:48;9.77;;;5.53;;
6497;SDS011;3282;48.358;10.958;2022-11-20T01:26:20;8.20;;;5.50;;
6497;SDS011;3282;48.358;10.958;2022-11-20T01:28:49;8.07;;;5.40;;
6497;SDS011;3282;48.358;10.958;2022-11-20T01:33:49;9.50;;;5.97;;
6497;SDS011;3282;48.358;10.958;2022-11-20T01:36:18;9.02;;;5.45;;
6497;SDS011;3282;48.358;10.958;2022-11-20T01:38:47;8.43;;;5.28;;
6497;SDS011;3282;48.358;10.958;2022-11-20T01:41:14;9.40;;;5.82;;
6497;SDS011;3282;48.358;10.958;2022-11-20T01:44:00;9.80;;;6.18;;
6497;SDS011;3282;48.358;10.958;2022-11-20T01:46:28;9.20;;;5.60;;
6497;SDS011;3282;48.358;10.958;2022-11-20T01:49:07;9.13;;;5.90;;
6497;SDS011;3282;48.358;10.958;2022-11-20T01:51:45;8.75;;;5.90;;
6497;SDS011;3282;48.358;10.958;2022-11-20T01:54:18;9.63;;;5.60;;
6497;SDS011;3282;48.358;10.958;2022-11-20T01:56:50;9.43;;;5.60;;
6497;SDS011;3282;48.358;10.958;2022-11-20T01:59:19;9.65;;;5.60;;
6497;SDS011;3282;48.358;10.958;2022-11-20T02:01:47;8.00;;;5.50;;
6497;SDS011;3282;48.358;10.958;2022-11-20T02:04:14;8.15;;;5.60;;
6497;SDS011;3282;48.358;10.958;2022-11-20T02:09:23;9.43;;;5.82;;
6497;SDS011;3282;48.358;10.958;2022-11-20T02:11:50;8.90;;;5.65;;
6497;SDS011;3282;48.358;10.958;2022-11-20T02:14:18;8.57;;;5.90;;
6497;SDS011;3282;48.358;10.958;2022-11-20T02:16:46;10.25;;;5.78;;
6497;SDS011;3282;48.358;10.958;2022-11-20T02:19:19;8.10;;;5.38;;
6497;SDS011;3282;48.358;10.958;2022-11-20T02:24:31;8.50;;;5.63;;
6497;SDS011;3282;48.358;10.958;2022-11-20T02:27:02;8.70;;;5.75;;
6497;SDS011;3282;48.358;10.958;2022-11-20T02:29:33;10.63;;;6.50;;
6497;SDS011;3282;48.358;10.958;2022-11-20T02:32:03;7.65;;;5.65;;
6497;SDS011;3282;48.358;10.958;2022-11-20T02:34:30;10.07;;;6.53;;
6497;SDS011;3282;48.358;10.958;2022-11-20T02:36:56;10.25;;;5.93;;
6497;SDS011;3282;48.358;10.958;2022-11-20T02:39:25;8.50;;;5.50;;
6497;SDS011;3282;48.358;10.958;2022-11-20T02:41:54;8.48;;;5.70;;
6497;SDS011;3282;48.358;10.958;2022-11-20T02:44:22;8.65;;;6.10;;
6497;SDS011;3282;48.358;10.958;2022-11-20T02:46:48;8.63;;;6.10;;
6497;SDS011;3282;48.358;10.958;2022-11-20T02:49:15;8.63;;;6.10;;
6497;SDS011;3282;48.358;10.958;2022-11-20T02:51:43;8.82;;;5.93;;
6497;SDS011;3282;48.358;10.958;2022-11-20T02:54:10;10.07;;;6.25;;
6497;SDS011;3282;48.358;10.958;2022-11-20T02:56:37;8.90;;;6.00;;
6497;SDS011;3282;48.358;10.958;2022-11-20T02:59:05;9.73;;;6.00;;
6497;SDS011;3282;48.358;10.958;2022-11-20T03:01:32;9.77;;;6.13;;
6497;SDS011;3282;48.358;10.958;2022-11-20T03:03:59;8.23;;;5.85;;
6497;SDS011;3282;48.358;10.958;2022-11-20T03:06:25;8.73;;;5.63;;
6497;SDS011;3282;48.358;10.958;2022-11-20T03:08:52;8.23;;;5.68;;
6497;SDS011;3282;48.358;10.958;2022-11-20T03:11:18;8.75;;;5.63;;
6497;SDS011;3282;48.358;10.958;2022-11-20T03:13:45;8.65;;;5.65;;
6497;SDS011;3282;48.358;10.958;2022-11-20T03:16:13;8.35;;;5.50;;
6497;SDS011;3282;48.358;10.958;2022-11-20T03:18:41;10.13;;;5.53;;
6497;SDS011;3282;48.358;10.958;2022-11-20T03:21:09;8.68;;;5.20;;
6497;SDS011;3282;48.358;10.958;2022-11-20T03:23:37;8.88;;;5.47;;
6497;SDS011;3282;48.358;10.958;2022-11-20T03:28:40;7.90;;;5.47;;
6497;SDS011;3282;48.358;10.958;2022-11-20T03:31:12;8.98;;;5.40;;
6497;SDS011;3282;48.358;10.958;2022-11-20T03:33:40;7.85;;;5.18;;
6497;SDS011;3282;48.358;10.958;2022-11-20T03:36:09;8.25;;;5.78;;
6497;SDS011;3282;48.358;10.958;2022-11-20T03:38:37;8.75;;;5.40;;
6497;SDS011;3282;48.358;10.958;2022-11-20T03:41:05;7.30;;;5.05;;
6497;SDS011;3282;48.358;10.958;2022-11-20T03:43:34;8.65;;;5.15;;
6497;SDS011;3282;48.358;10.958;2022-11-20T03:46:01;9.23;;;5.50;;
6497;SDS011;3282;48.358;10.958;2022-11-20T03:48:28;8.60;;;5.57;;
6497;SDS011;3282;48.358;10.958;2022-11-20T03:51:11;7.72;;;5.10;;
6497;SDS011;3282;48.358;10.958;2022-11-20T03:53:43;6.90;;;5.00;;
6497;SDS011;3282;48.358;10.958;2022-11-20T03:56:11;7.57;;;4.82;;
6497;SDS011;3282;48.358;10.958;2022-11-20T03:58:40;9.00;;;5.60;;
6497;SDS011;3282;48.358;10.958;2022-11-20T04:01:07;8.20;;;5.10;;
6497;SDS011;3282;48.358;10.958;2022-11-20T04:03:36;7.38;;;4.93;;
6497;SDS011;3282;48.358;10.958;2022-11-20T04:06:46;6.25;;;4.80;;
6497;SDS011;3282;48.358;10.958;2022-11-20T04:08:55;7.30;;;4.90;;
6497;SDS011;3282;48.358;10.958;2022-11-20T04:11:27;7.70;;;5.20;;
6497;SDS011;3282;48.358;10.958;2022-11-20T04:13:56;11.02;;;4.78;;
6497;SDS011;3282;48.358;10.958;2022-11-20T04:16:25;7.53;;;5.10;;
6497;SDS011;3282;48.358;10.958;2022-11-20T04:18:53;7.13;;;4.50;;
6497;SDS011;3282;48.358;10.958;2022-11-20T04:21:20;6.38;;;4.70;;
6497;SDS011;3282;48.358;10.958;2022-11-20T04:23:47;8.73;;;4.88;;
6497;SDS011;3282;48.358;10.958;2022-11-20T04:26:14;8.43;;;5.07;;
6497;SDS011;3282;48.358;10.958;2022-11-20T04:28:41;7.55;;;5.20;;
6497;SDS011;3282;48.358;10.958;2022-11-20T04:31:11;7.10;;;4.78;;
6497;SDS011;3282;48.358;10.958;2022-11-20T04:33:43;8.70;;;5.10;;
6497;SDS011;3282;48.358;10.958;2022-11-20T04:36:20;7.15;;;4.55;;
6497;SDS011;3282;48.358;10.958;2022-11-20T04:38:52;8.10;;;5.00;;
6497;SDS011;3282;48.358;10.958;2022-11-20T04:41:23;8.52;;;5.00;;
6497;SDS011;3282;48.358;10.958;2022-11-20T04:43:55;6.63;;;4.60;;
6497;SDS011;3282;48.358;10.958;2022-11-20T04:46:26;7.10;;;4.90;;
6497;SDS011;3282;48.358;10.958;2022-11-20T04:48:54;7.90;;;4.85;;
6497;SDS011;3282;48.358;10.958;2022-11-20T04:51:21;6.97;;;4.72;;
6497;SDS011;3282;48.358;10.958;2022-11-20T04:53:47;7.47;;;5.10;;
6497;SDS011;3282;48.358;10.958;2022-11-20T04:56:14;8.60;;;4.85;;
6497;SDS011;3282;48.358;10.958;2022-11-20T04:58:42;6.95;;;4.50;;
6497;SDS011;3282;48.358;10.958;2022-11-20T05:01:12;7.10;;;4.72;;
6497;SDS011;3282;48.358;10.958;2022-11-20T05:03:44;6.93;;;4.63;;
6497;SDS011;3282;48.358;10.958;2022-11-20T05:06:12;8.63;;;4.82;;
6497;SDS011;3282;48.358;10.958;2022-11-20T05:08:39;7.78;;;4.60;;
6497;SDS011;3282;48.358;10.958;2022-11-20T05:11:11;8.77;;;4.72;;
6497;SDS011;3282;48.358;10.958;2022-11-20T05:13:39;7.20;;;4.50;;
6497;SDS011;3282;48.358;10.958;2022-11-20T05:16:10;8.38;;;5.10;;
6497;SDS011;3282;48.358;10.958;2022-11-20T05:18:39;7.85;;;4.50;;
6497;SDS011;3282;48.358;10.958;2022-11-20T05:21:07;6.45;;;4.22;;
6497;SDS011;3282;48.358;10.958;2022-11-20T05:23:35;6.43;;;4.45;;
6497;SDS011;3282;48.358;10.958;2022-11-20T05:26:02;7.05;;;4.53;;
6497;SDS011;3282;48.358;10.958;2022-11-20T05:28:30;6.45;;;4.10;;
6497;SDS011;3282;48.358;10.958;2022-11-20T05:31:10;8.25;;;4.50;;
6497;SDS011;3282;48.358;10.958;2022-11-20T05:33:41;7.20;;;4.30;;
6497;SDS011;3282;48.358;10.958;2022-11-20T05:36:09;5.97;;;4.20;;
6497;SDS011;3282;48.358;10.958;2022-11-20T05:38:37;6.90;;;4.40;;
6497;SDS011;3282;48.358;10.958;2022-11-20T05:41:08;6.72;;;4.57;;
6497;SDS011;3282;48.358;10.958;2022-11-20T05:43:37;6.47;;;4.40;;
6497;SDS011;3282;48.358;10.958;2022-11-20T05:46:05;6.32;;;4.18;;
6497;SDS011;3282;48.358;10.958;2022-11-20T05:48:33;5.80;;;3.95;;
6497;SDS011;3282;48.358;10.958;2022-11-20T05:51:01;6.60;;;4.40;;
6497;SDS011;3282;48.358;10.958;2022-11-20T05:53:29;6.88;;;4.25;;
6497;SDS011;3282;48.358;10.958;2022-11-20T05:55:56;6.82;;;4.10;;
6497;SDS011;3282;48.358;10.958;2022-11-20T05:58:25;6.40;;;4.20;;
6497;SDS011;3282;48.358;10.958;2022-11-20T06:00:52;6.47;;;4.18;;
6497;SDS011;3282;48.358;10.958;2022-11-20T06:03:18;6.15;;;4.00;;
6497;SDS011;3282;48.358;10.958;2022-11-20T06:05:45;6.50;;;4.10;;
6497;SDS011;3282;48.358;10.958;2022-11-20T06:08:12;7.15;;;4.38;;
6497;SDS011;3282;48.358;10.958;2022-11-20T06:10:39;6.82;;;4.60;;
6497;SDS011;3282;48.358;10.958;2022-11-20T06:13:05;7.43;;;4.53;;
6497;SDS011;3282;48.358;10.958;2022-11-20T06:15:32;7.35;;;4.38;;
6497;SDS011;3282;48.358;10.958;2022-11-20T06:17:58;6.25;;;4.20;;
6497;SDS011;3282;48.358;10.958;2022-11-20T06:20:25;6.43;;;4.20;;
6497;SDS011;3282;48.358;10.958;2022-11-20T06:22:51;6.60;;;4.15;;
6497;SDS011;3282;48.358;10.958;2022-11-20T06:25:18;7.40;;;3.88;;
6497;SDS011;3282;48.358;10.958;2022-11-20T06:27:44;7.43;;;3.92;;
6497;SDS011;3282;48.358;10.958;2022-11-20T06:30:11;5.68;;;3.78;;
6497;SDS011;3282;48.358;10.958;2022-11-20T06:32:38;5.90;;;3.97;;
6497;SDS011;3282;48.358;10.958;2022-11-20T06:35:05;6.50;;;4.28;;
6497;SDS011;3282;48.358;10.958;2022-11-20T06:37:31;5.28;;;3.70;;
6497;SDS011;3282;48.358;10.958;2022-11-20T06:39:58;5.40;;;3.80;;
6497;SDS011;3282;48.358;10.958;2022-11-20T06:42:24;5.97;;;3.83;;
6497;SDS011;3282;48.358;10.958;2022-11-20T06:44:51;5.50;;;3.83;;
6497;SDS011;3282;48.358;10.958;2022-11-20T06:47:17;5.75;;;3.80;;
6497;SDS011;3282;48.358;10.958;2022-11-20T06:49:44;7.75;;;3.95;;
6497;SDS011;3282;48.358;10.958;2022-11-20T06:52:10;8.02;;;4.13;;
6497;SDS011;3282;48.358;10.958;2022-11-20T06:54:37;7.30;;;3.50;;
6497;SDS011;3282;48.358;10.958;2022-11-20T06:57:03;5.93;;;3.90;;
6497;SDS011;3282;48.358;10.958;2022-11-20T06:59:30;6.07;;;3.67;;
6497;SDS011;3282;48.358;10.958;2022-11-20T07:01:56;5.65;;;3.72;;
6497;SDS011;3282;48.358;10.958;2022-11-20T07:04:23;5.82;;;4.00;;
6497;SDS011;3282;48.358;10.958;2022-11-20T07:06:49;6.10;;;3.92;;
6497;SDS011;3282;48.358;10.958;2022-11-20T07:09:16;7.00;;;4.00;;
6497;SDS011;3282;48.358;10.958;2022-11-20T07:11:43;6.45;;;4.10;;
6497;SDS011;3282;48.358;10.958;2022-11-20T07:14:09;6.03;;;3.97;;
6497;SDS011;3282;48.358;10.958;2022-11-20T07:16:36;5.78;;;3.90;;
6497;SDS011;3282;48.358;10.958;2022-11-20T07:19:03;5.70;;;3.92;;
6497;SDS011;3282;48.358;10.958;2022-11-20T07:21:29;6.10;;;4.05;;
6497;SDS011;3282;48.358;10.958;2022-11-20T07:23:56;6.85;;;4.13;;
6497;SDS011;3282;48.358;10.958;2022-11-20T07:26:23;5.97;;;3.88;;
6497;SDS011;3282;48.358;10.958;2022-11-20T07:28:49;6.00;;;4.00;;
6497;SDS011;3282;48.358;10.958;2022-11-20T07:31:16;5.40;;;3.75;;
6497;SDS011;3282;48.358;10.958;2022-11-20T07:33:45;6.55;;;4.30;;
6497;SDS011;3282;48.358;10.958;2022-11-20T07:36:11;6.05;;;3.80;;
6497;SDS011;3282;48.358;10.958;2022-11-20T07:38:38;7.35;;;4.43;;
6497;SDS011;3282;48.358;10.958;2022-11-20T07:41:05;5.95;;;4.38;;
6497;SDS011;3282;48.358;10.958;2022-11-20T07:43:31;7.30;;;4.80;;
6497;SDS011;3282;48.358;10.958;2022-11-20T07:46:05;7.03;;;4.40;;
6497;SDS011;3282;48.358;10.958;2022-11-20T07:48:31;8.30;;;4.72;;
6497;SDS011;3282;48.358;10.958;2022-11-20T07:50:58;6.07;;;4.40;;
6497;SDS011;3282;48.358;10.958;2022-11-20T07:53:25;6.53;;;4.35;;
6497;SDS011;3282;48.358;10.958;2022-11-20T07:55:51;7.45;;;4.60;;
6497;SDS011;3282;48.358;10.958;2022-11-20T07:58:19;7.70;;;4.97;;
6497;SDS011;3282;48.358;10.958;2022-11-20T08:00:46;6.07;;;4.40;;
6497;SDS011;3282;48.358;10.958;2022-11-20T08:03:13;6.82;;;4.32;;
6497;SDS011;3282;48.358;10.958;2022-11-20T08:05:39;6.90;;;4.53;;
6497;SDS011;3282;48.358;10.958;2022-11-20T08:08:06;6.68;;;4.55;;
6497;SDS011;3282;48.358;10.958;2022-11-20T08:10:33;6.72;;;4.07;;
6497;SDS011;3282;48.358;10.958;2022-11-20T08:13:00;6.32;;;4.50;;
6497;SDS011;3282;48.358;10.958;2022-11-20T08:15:48;6.63;;;4.22;;
6497;SDS011;3282;48.358;10.958;2022-11-20T08:18:17;7.65;;;4.70;;
6497;SDS011;3282;48.358;10.958;2022-11-20T08:21:05;7.93;;;4.35;;
6497;SDS011;3282;48.358;10.958;2022-11-20T08:23:31;6.70;;;4.50;;
6497;SDS011;3282;48.358;10.958;2022-11-20T08:25:58;6.30;;;4.35;;
6497;SDS011;3282;48.358;10.958;2022-11-20T08:28:24;6.25;;;4.50;;
6497;SDS011;3282;48.358;10.958;2022-11-20T08:49:17;6.95;;;4.00;;
6497;SDS011;3282;48.358;10.958;2022-11-20T08:53:03;7.35;;;4.13;;
6497;SDS011;3282;48.358;10.958;2022-11-20T09:05:47;6.18;;;4.30;;
6497;SDS011;3282;48.358;10.958;2022-11-20T09:09:15;6.47;;;3.85;;
6497;SDS011;3282;48.358;10.958;2022-11-20T09:12:24;5.65;;;3.70;;
6497;SDS011;3282;48.358;10.958;2022-11-20T09:16:21;7.20;;;4.00;;
6497;SDS011;3282;48.358;10.958;2022-11-20T09:18:49;6.43;;;3.70;;
6497;SDS011;3282;48.358;10.958;2022-11-20T09:21:36;5.53;;;3.47;;
6497;SDS011;3282;48.358;10.958;2022-11-20T09:24:02;5.47;;;3.65;;
6497;SDS011;3282;48.358;10.958;2022-11-20T09:28:21;5.35;;;3.42;;
6497;SDS011;3282;48.358;10.958;2022-11-20T09:31:21;5.53;;;3.72;;
6497;SDS011;3282;48.358;10.958;2022-11-20T09:34:28;5.25;;;3.60;;
6497;SDS011;3282;48.358;10.958;2022-11-20T09:43:10;7.57;;;3.30;;
6497;SDS011;3282;48.358;10.958;2022-11-20T09:54:35;6.65;;;3.80;;
6497;SDS011;3282;48.358;10.958;2022-11-20T09:57:21;5.00;;;3.00;;
6497;SDS011;3282;48.358;10.958;2022-11-20T10:00:45;4.63;;;2.97;;
6497;SDS011;3282;48.358;10.958;2022-11-20T10:03:16;5.00;;;2.88;;
6497;SDS011;3282;48.358;10.958;2022-11-20T10:05:56;4.68;;;2.63;;
6497;SDS011;3282;48.358;10.958;2022-11-20T10:08:29;5.28;;;2.50;;
6497;SDS011;3282;48.358;10.958;2022-11-20T10:17:26;4.57;;;2.63;;
6497;SDS011;3282;48.358;10.958;2022-11-20T10:23:26;4.50;;;2.70;;
6497;SDS011;3282;48.358;10.958;2022-11-20T10:26:02;5.97;;;2.83;;
6497;SDS011;3282;48.358;10.958;2022-11-20T10:31:34;5.15;;;2.60;;
6497;SDS011;3282;48.358;10.958;2022-11-20T10:34:12;4.28;;;2.47;;
6497;SDS011;3282;48.358;10.958;2022-11-20T10:36:46;4.32;;;2.60;;
6497;SDS011;3282;48.358;10.958;2022-11-20T10:39:22;7.13;;;2.60;;
6497;SDS011;3282;48.358;10.958;2022-11-20T10:41:55;4.60;;;2.50;;
6497;SDS011;3282;48.358;10.958;2022-11-20T10:44:31;3.25;;;2.20;;
6497;SDS011;3282;48.358;10.958;2022-11-20T10:47:21;4.85;;;2.42;;
6497;SDS011;3282;48.358;10.958;2022-11-20T10:49:50;5.07;;;2.50;;
6497;SDS011;3282;48.358;10.958;2022-11-20T10:52:28;4.35;;;2.40;;
6497;SDS011;3282;48.358;10.958;2022-11-20T11:01:38;3.78;;;2.10;;
6497;SDS011;3282;48.358;10.958;2022-11-20T11:03:54;3.75;;;2.10;;
6497;SDS011;3282;48.358;10.958;2022-11-20T11:09:10;3.30;;;2.00;;
6497;SDS011;3282;48.358;10.958;2022-11-20T11:11:41;5.07;;;2.20;;
6497;SDS011;3282;48.358;10.958;2022-11-20T11:14:15;3.00;;;2.08;;
6497;SDS011;3282;48.358;10.958;2022-11-20T11:16:48;4.45;;;2.50;;
6497;SDS011;3282;48.358;10.958;2022-11-20T11:19:15;4.82;;;2.30;;
6497;SDS011;3282;48.358;10.958;2022-11-20T11:21:52;4.93;;;2.75;;
6497;SDS011;3282;48.358;10.958;2022-11-20T11:24:22;3.83;;;2.42;;
6497;SDS011;3282;48.358;10.958;2022-11-20T11:27:13;7.97;;;2.80;;
6497;SDS011;3282;48.358;10.958;2022-11-20T11:29:44;4.05;;;2.00;;
6497;SDS011;3282;48.358;10.958;2022-11-20T11:32:13;4.15;;;2.33;;
6497;SDS011;3282;48.358;10.958;2022-11-20T11:35:02;3.65;;;2.10;;
6497;SDS011;3282;48.358;10.958;2022-11-20T11:37:35;3.75;;;2.20;;
6497;SDS011;3282;48.358;10.958;2022-11-20T11:40:03;4.68;;;2.53;;
6497;SDS011;3282;48.358;10.958;2022-11-20T11:42:56;3.65;;;2.10;;
6497;SDS011;3282;48.358;10.958;2022-11-20T11:45:25;5.05;;;2.45;;
6497;SDS011;3282;48.358;10.958;2022-11-20T11:47:53;5.30;;;2.50;;
6497;SDS011;3282;48.358;10.958;2022-11-20T11:50:23;6.05;;;2.60;;
6497;SDS011;3282;48.358;10.958;2022-11-20T11:52:56;4.00;;;2.20;;
6497;SDS011;3282;48.358;10.958;2022-11-20T11:55:26;4.65;;;2.35;;
6497;SDS011;3282;48.358;10.958;2022-11-20T12:00:55;4.03;;;2.20;;
6497;SDS011;3282;48.358;10.958;2022-11-20T12:03:28;4.72;;;2.38;;
6497;SDS011;3282;48.358;10.958;2022-11-20T12:06:05;3.85;;;2.10;;
6497;SDS011;3282;48.358;10.958;2022-11-20T12:11:36;5.97;;;2.92;;
6497;SDS011;3282;48.358;10.958;2022-11-20T12:14:31;5.93;;;2.70;;
6497;SDS011;3282;48.358;10.958;2022-11-20T12:17:01;6.72;;;2.47;;
6497;SDS011;3282;48.358;10.958;2022-11-20T12:19:30;4.72;;;2.72;;
6497;SDS011;3282;48.358;10.958;2022-11-20T12:25:17;6.57;;;2.95;;
6497;SDS011;3282;48.358;10.958;2022-11-20T12:33:26;5.20;;;2.45;;
6497;SDS011;3282;48.358;10.958;2022-11-20T12:38:59;5.75;;;2.60;;
6497;SDS011;3282;48.358;10.958;2022-11-20T12:47:44;4.53;;;2.83;;
6497;SDS011;3282;48.358;10.958;2022-11-20T13:06:57;4.18;;;2.45;;
6497;SDS011;3282;48.358;10.958;2022-11-20T13:09:24;4.43;;;3.00;;
6497;SDS011;3282;48.358;10.958;2022-11-20T13:12:03;4.57;;;2.70;;
6497;SDS011;3282;48.358;10.958;2022-11-20T13:19:38;4.68;;;2.97;;
6497;SDS011;3282;48.358;10.958;2022-11-20T13:22:07;5.55;;;2.50;;
6497;SDS011;3282;48.358;10.958;2022-11-20T13:24:35;4.63;;;2.60;;
6497;SDS011;3282;48.358;10.958;2022-11-20T13:27:05;4.35;;;2.63;;
6497;SDS011;3282;48.358;10.958;2022-11-20T13:32:52;6.60;;;3.10;;
6497;SDS011;3282;48.358;10.958;2022-11-20T13:35:26;5.97;;;3.10;;
6497;SDS011;3282;48.358;10.958;2022-11-20T13:38:05;4.07;;;2.60;;
6497;SDS011;3282;48.358;10.958;2022-11-20T13:40:37;4.43;;;2.72;;
6497;SDS011;3282;48.358;10.958;2022-11-20T13:45:55;4.00;;;2.70;;
6497;SDS011;3282;48.358;10.958;2022-11-20T13:48:23;4.70;;;2.55;;
6497;SDS011;3282;48.358;10.958;2022-11-20T13:51:36;5.40;;;2.58;;
6497;SDS011;3282;48.358;10.958;2022-11-20T13:54:04;3.92;;;2.70;;
6497;SDS011;3282;48.358;10.958;2022-11-20T14:01:57;5.22;;;2.83;;
6497;SDS011;3282;48.358;10.958;2022-11-20T14:04:29;5.93;;;3.28;;
6497;SDS011;3282;48.358;10.958;2022-11-20T14:06:59;4.75;;;2.88;;
6497;SDS011;3282;48.358;10.958;2022-11-20T14:09:30;4.57;;;3.17;;
6497;SDS011;3282;48.358;10.958;2022-11-20T14:11:58;3.85;;;2.35;;
6497;SDS011;3282;48.358;10.958;2022-11-20T14:14:25;5.50;;;3.22;;
6497;SDS011;3282;48.358;10.958;2022-11-20T14:17:06;4.95;;;3.10;;
6497;SDS011;3282;48.358;10.958;2022-11-20T14:19:51;5.30;;;2.70;;
6497;SDS011;3282;48.358;10.958;2022-11-20T14:25:04;4.43;;;2.83;;
6497;SDS011;3282;48.358;10.958;2022-11-20T14:27:33;4.90;;;2.90;;
6497;SDS011;3282;48.358;10.958;2022-11-20T14:30:02;4.13;;;2.65;;
6497;SDS011;3282;48.358;10.958;2022-11-20T14:32:30;4.70;;;2.88;;
6497;SDS011;3282;48.358;10.958;2022-11-20T14:34:59;4.97;;;2.85;;
6497;SDS011;3282;48.358;10.958;2022-11-20T14:37:33;4.25;;;2.67;;
6497;SDS011;3282;48.358;10.958;2022-11-20T14:43:02;6.53;;;3.20;;
6497;SDS011;3282;48.358;10.958;2022-11-20T14:45:48;5.25;;;2.65;;
6497;SDS011;3282;48.358;10.958;2022-11-20T14:48:32;6.38;;;3.58;;
6497;SDS011;3282;48.358;10.958;2022-11-20T14:51:04;5.88;;;3.35;;
6497;SDS011;3282;48.358;10.958;2022-11-20T14:53:30;5.80;;;3.00;;
6497;SDS011;3282;48.358;10.958;2022-11-20T14:55:58;8.68;;;2.88;;
6497;SDS011;3282;48.358;10.958;2022-11-20T14:58:30;8.52;;;2.60;;
6497;SDS011;3282;48.358;10.958;2022-11-20T15:01:00;4.45;;;2.65;;
6497;SDS011;3282;48.358;10.958;2022-11-20T15:03:39;8.73;;;2.53;;
6497;SDS011;3282;48.358;10.958;2022-11-20T15:06:07;4.32;;;2.00;;
6497;SDS011;3282;48.358;10.958;2022-11-20T15:08:37;3.53;;;2.00;;
6497;SDS011;3282;48.358;10.958;2022-11-20T15:11:14;5.40;;;2.33;;
6497;SDS011;3282;48.358;10.958;2022-11-20T15:13:43;4.63;;;2.25;;
6497;SDS011;3282;48.358;10.958;2022-11-20T15:16:13;5.15;;;2.40;;
6497;SDS011;3282;48.358;10.958;2022-11-20T15:18:46;4.15;;;2.40;;
6497;SDS011;3282;48.358;10.958;2022-11-20T15:21:14;5.00;;;2.22;;
6497;SDS011;3282;48.358;10.958;2022-11-20T15:23:45;4.60;;;2.10;;
6497;SDS011;3282;48.358;10.958;2022-11-20T15:26:12;3.95;;;2.35;;
6497;SDS011;3282;48.358;10.958;2022-11-20T15:31:17;4.50;;;2.30;;
6497;SDS011;3282;48.358;10.958;2022-11-20T15:33:46;5.70;;;2.50;;
6497;SDS011;3282;48.358;10.958;2022-11-20T15:36:12;6.20;;;2.63;;
6497;SDS011;3282;48.358;10.958;2022-11-20T15:38:39;5.70;;;2.60;;
6497;SDS011;3282;48.358;10.958;2022-11-20T15:41:06;6.07;;;3.40;;
6497;SDS011;3282;48.358;10.958;2022-11-20T15:43:33;6.05;;;3.40;;
6497;SDS011;3282;48.358;10.958;2022-11-20T15:46:00;4.75;;;2.80;;
6497;SDS011;3282;48.358;10.958;2022-11-20T15:48:44;31.98;;;14.90;;
6497;SDS011;3282;48.358;10.958;2022-11-20T15:51:21;20.92;;;10.85;;
6497;SDS011;3282;48.358;10.958;2022-11-20T15:53:49;5.10;;;2.63;;
6497;SDS011;3282;48.358;10.958;2022-11-20T15:56:15;11.55;;;6.72;;
6497;SDS011;3282;48.358;10.958;2022-11-20T15:58:42;43.03;;;25.88;;
6497;SDS011;3282;48.358;10.958;2022-11-20T16:01:13;5.82;;;3.28;;
6497;SDS011;3282;48.358;10.958;2022-11-20T16:03:41;18.25;;;12.30;;
6497;SDS011;3282;48.358;10.958;2022-11-20T16:06:08;29.58;;;17.33;;
6497;SDS011;3282;48.358;10.958;2022-11-20T16:08:35;39.50;;;25.27;;
6497;SDS011;3282;48.358;10.958;2022-11-20T16:11:01;62.63;;;41.17;;
6497;SDS011;3282;48.358;10.958;2022-11-20T16:13:28;57.33;;;40.97;;
6497;SDS011;3282;48.358;10.958;2022-11-20T16:16:19;15.60;;;9.32;;
6497;SDS011;3282;48.358;10.958;2022-11-20T16:18:48;10.70;;;6.05;;
6497;SDS011;3282;48.358;10.958;2022-11-20T16:21:16;12.60;;;6.95;;
6497;SDS011;3282;48.358;10.958;2022-11-20T16:23:43;29.60;;;20.52;;
6497;SDS011;3282;48.358;10.958;2022-11-20T16:26:10;13.57;;;9.52;;
6497;SDS011;3282;48.358;10.958;2022-11-20T16:28:43;74.43;;;53.90;;
6497;SDS011;3282;48.358;10.958;2022-11-20T16:31:14;43.28;;;28.55;;
6497;SDS011;3282;48.358;10.958;2022-11-20T16:33:42;14.45;;;8.65;;
6497;SDS011;3282;48.358;10.958;2022-11-20T16:36:13;14.57;;;8.10;;
6497;SDS011;3282;48.358;10.958;2022-11-20T16:38:41;114.38;;;75.55;;
6497;SDS011;3282;48.358;10.958;2022-11-20T16:41:08;50.10;;;30.00;;
6497;SDS011;3282;48.358;10.958;2022-11-20T16:46:15;24.60;;;15.75;;
6497;SDS011;3282;48.358;10.958;2022-11-20T16:48:43;38.05;;;26.40;;
6497;SDS011;3282;48.358;10.958;2022-11-20T16:51:10;17.10;;;10.52;;
6497;SDS011;3282;48.358;10.958;2022-11-20T16:53:38;20.20;;;13.70;;
6497;SDS011;3282;48.358;10.958;2022-11-20T16:56:12;38.45;;;23.40;;
6497;SDS011;3282;48.358;10.958;2022-11-20T16:58:42;54.08;;;31.00;;
6497;SDS011;3282;48.358;10.958;2022-11-20T17:01:10;61.88;;;40.80;;
6497;SDS011;3282;48.358;10.958;2022-11-20T17:03:39;42.85;;;29.98;;
6497;SDS011;3282;48.358;10.958;2022-11-20T17:08:41;84.38;;;49.33;;
6497;SDS011;3282;48.358;10.958;2022-11-20T17:11:08;110.07;;;61.25;;
6497;SDS011;3282;48.358;10.958;2022-11-20T17:13:37;46.42;;;24.67;;
6497;SDS011;3282;48.358;10.958;2022-11-20T17:16:09;173.07;;;95.53;;
6497;SDS011;3282;48.358;10.958;2022-11-20T17:18:37;52.05;;;26.60;;
6497;SDS011;3282;48.358;10.958;2022-11-20T17:21:04;69.68;;;39.90;;
6497;SDS011;3282;48.358;10.958;2022-11-20T17:23:31;187.50;;;99.35;;
6497;SDS011;3282;48.358;10.958;2022-11-20T17:26:00;33.40;;;17.50;;
6497;SDS011;3282;48.358;10.958;2022-11-20T17:28:31;193.80;;;122.55;;
6497;SDS011;3282;48.358;10.958;2022-11-20T17:30:59;120.07;;;78.45;;
6497;SDS011;3282;48.358;10.958;2022-11-20T17:33:28;79.53;;;50.55;;
6497;SDS011;3282;48.358;10.958;2022-11-20T17:35:55;156.35;;;116.25;;
6497;SDS011;3282;48.358;10.958;2022-11-20T17:38:22;48.97;;;33.47;;
6497;SDS011;3282;48.358;10.958;2022-11-20T17:40:48;57.70;;;34.88;;
6497;SDS011;3282;48.358;10.958;2022-11-20T17:43:15;43.30;;;27.23;;
6497;SDS011;3282;48.358;10.958;2022-11-20T17:45:41;38.47;;;23.70;;
6497;SDS011;3282;48.358;10.958;2022-11-20T17:48:09;43.58;;;23.10;;
6497;SDS011;3282;48.358;10.958;2022-11-20T17:50:37;56.00;;;37.83;;